createdAt,value
2022-11-04T00:02:44.743Z,99.26
2022-11-04T00:06:46.613Z,98.84
2022-11-04T00:11:06.563Z,98.60
2022-11-04T00:15:26.720Z,98.38
2022-11-04T00:19:28.348Z,97.70
2022-11-04T00:23:48.422Z,97.56
2022-11-04T00:28:08.933Z,97.43
2022-11-04T00:36:30.922Z,96.62
2022-11-04T00:40:32.206Z,96.87
2022-11-04T00:44:34.311Z,96.27
2022-11-04T00:48:35.556Z,96.24
2022-11-04T00:52:36.871Z,95.69
2022-11-04T00:56:39.185Z,96.34
2022-11-04T01:00:40.602Z,95.63
2022-11-04T01:04:42.104Z,96.08
2022-11-04T01:08:43.464Z,95.46
2022-11-04T01:12:44.717Z,96.04
2022-11-04T01:16:48.783Z,96.01
2022-11-04T01:20:50.063Z,96.21
2022-11-04T01:24:51.577Z,95.99
2022-11-04T01:28:54.736Z,95.77
2022-11-04T01:32:56.008Z,96.40
2022-11-04T01:36:57.427Z,97.04
2022-11-04T01:40:59.438Z,97.60
2022-11-04T01:45:01.205Z,97.87
2022-11-04T01:49:21.347Z,97.83
2022-11-04T01:53:34.558Z,98.36
2022-11-04T01:57:40.502Z,98.71
2022-11-04T02:01:42.526Z,99.21
2022-11-04T02:05:44.638Z,98.76
2022-11-04T02:09:47.126Z,98.13
2022-11-04T02:13:48.800Z,98.46
2022-11-04T02:18:00.184Z,98.22
2022-11-04T02:22:02.093Z,98.51
2022-11-04T02:26:24.055Z,98.63
2022-11-04T02:30:27.415Z,98.37
2022-11-04T02:34:37.856Z,98.25
2022-11-04T02:38:52.186Z,97.91
2022-11-04T02:43:08.580Z,97.57
2022-11-04T02:47:18.683Z,97.57
2022-11-04T02:51:24.942Z,97.28
2022-11-04T02:55:38.982Z,96.95
2022-11-04T02:59:49.474Z,97.83
2022-11-04T03:03:54.986Z,98.01
2022-11-04T03:07:57.938Z,97.66
2022-11-04T03:12:02.615Z,97.45
2022-11-04T03:16:06.583Z,97.46
2022-11-04T03:20:12.060Z,97.40
2022-11-04T03:24:13.685Z,96.33
2022-11-04T03:28:34.483Z,96.17
2022-11-04T03:32:58.820Z,96.92
2022-11-04T03:37:01.619Z,96.47
2022-11-04T03:41:07.142Z,96.52
2022-11-04T03:45:10.456Z,95.89
2022-11-04T03:49:12.237Z,95.71
2022-11-04T03:53:24.208Z,96.07
2022-11-04T03:57:25.551Z,96.45
2022-11-04T04:01:30.336Z,96.35
2022-11-04T04:05:36.955Z,95.98
2022-11-04T04:09:43.731Z,96.11
2022-11-04T04:14:06.626Z,96.02
2022-11-04T04:18:12.846Z,96.19
2022-11-04T04:22:18.649Z,96.48
2022-11-04T04:26:42.252Z,96.49
2022-11-04T04:30:44.519Z,96.61
2022-11-04T04:34:48.203Z,97.26
2022-11-04T04:39:08.132Z,96.92
2022-11-04T04:43:33.345Z,97.71
2022-11-04T04:47:40.228Z,97.77
2022-11-04T04:51:45.190Z,97.62
2022-11-04T04:55:46.523Z,97.72
2022-11-04T04:59:48.705Z,97.26
2022-11-04T05:03:50.065Z,97.38
2022-11-04T05:07:51.791Z,97.89
2022-11-04T05:11:53.106Z,97.86
2022-11-04T05:15:54.788Z,98.52
2022-11-04T05:19:56.038Z,98.10
2022-11-04T05:23:57.559Z,98.35
2022-11-04T05:27:59.758Z,97.67
2022-11-04T05:32:01.286Z,98.04
2022-11-04T05:36:06.883Z,98.39
2022-11-04T05:40:08.759Z,98.27
2022-11-04T05:44:10.934Z,99.02
2022-11-04T05:48:12.236Z,99.15
2022-11-04T05:52:16.165Z,99.32
2022-11-04T05:56:17.792Z,99.84
2022-11-04T06:00:19.383Z,100.00
2022-11-04T06:04:21.215Z,100.00
2022-11-04T06:08:22.751Z,100.00
2022-11-04T06:17:06.593Z,100.00
2022-11-04T06:21:38.734Z,100.00
2022-11-04T06:25:43.646Z,100.00
2022-11-04T06:29:49.438Z,100.00
2022-11-04T06:33:53.269Z,100.00
2022-11-04T06:42:17.771Z,100.00
2022-11-04T06:46:48.194Z,100.00
2022-11-04T06:55:29.001Z,100.00
2022-11-04T07:17:38.495Z,99.70
2022-11-04T07:26:59.066Z,99.23
2022-11-04T07:36:37.228Z,99.97
2022-11-04T07:46:04.978Z,99.85
2022-11-04T07:50:11.548Z,100.00
2022-11-04T07:54:19.377Z,100.00
2022-11-04T07:58:22.693Z,99.97
2022-11-04T08:02:36.079Z,100.00
2022-11-04T08:06:57.529Z,99.65
2022-11-04T08:11:03.989Z,99.55
2022-11-04T08:15:05.821Z,99.67
2022-11-04T08:19:07.191Z,99.81
2022-11-04T08:23:12.255Z,99.19
2022-11-04T08:27:14.271Z,99.43
2022-11-04T08:31:24.618Z,100.00
2022-11-04T08:35:26.043Z,100.00
2022-11-04T08:39:27.488Z,100.00
2022-11-04T08:43:29.040Z,100.00
2022-11-04T08:47:30.469Z,100.00
2022-11-04T08:51:33.488Z,100.00
2022-11-04T08:55:35.620Z,99.84
2022-11-04T08:59:36.866Z,100.00
2022-11-04T09:03:46.948Z,100.00
2022-11-04T09:08:01.463Z,100.00
2022-11-04T09:12:08.989Z,99.53
2022-11-04T09:20:37.569Z,99.07
2022-11-04T09:28:58.437Z,98.88
2022-11-04T09:33:00.070Z,98.77
2022-11-04T09:37:01.761Z,98.79
2022-11-04T09:41:09.081Z,98.59
2022-11-04T09:45:21.732Z,98.19
2022-11-04T09:49:26.462Z,97.61
2022-11-04T09:53:37.910Z,97.19
2022-11-04T09:57:39.327Z,97.69
2022-11-04T10:01:46.224Z,95.14
2022-11-04T10:05:47.516Z,94.04
2022-11-04T10:10:03.827Z,93.10
2022-11-04T10:14:08.963Z,91.35
2022-11-04T10:18:16.672Z,91.65
2022-11-04T10:22:28.434Z,91.30
2022-11-04T10:26:35.914Z,91.73
2022-11-04T10:30:37.287Z,91.56
2022-11-04T10:34:44.292Z,90.71
2022-11-04T10:38:50.488Z,88.08
2022-11-04T10:42:52.860Z,89.70
2022-11-04T10:46:59.407Z,90.98
2022-11-04T10:51:01.378Z,91.27
2022-11-04T10:55:02.949Z,90.51
2022-11-04T10:59:24.251Z,89.12
2022-11-04T11:03:27.877Z,89.15
2022-11-04T11:07:36.028Z,88.52
2022-11-04T11:11:37.307Z,87.51
2022-11-04T11:15:41.248Z,86.66
2022-11-04T11:19:51.839Z,86.79
2022-11-04T11:23:56.093Z,85.65
2022-11-04T11:27:59.107Z,86.44
2022-11-04T11:32:03.144Z,87.29
2022-11-04T11:36:16.713Z,86.80
2022-11-04T11:40:25.958Z,86.86
2022-11-04T11:44:38.614Z,86.69
2022-11-04T11:48:43.031Z,86.34
2022-11-04T11:52:45.073Z,86.42
2022-11-04T12:01:22.020Z,84.92
2022-11-04T12:10:50.884Z,84.88
2022-11-04T12:14:59.181Z,84.47
2022-11-04T12:19:19.432Z,85.98
2022-11-04T12:23:25.261Z,84.66
2022-11-04T12:27:34.080Z,84.37
2022-11-04T12:31:51.804Z,84.26
2022-11-04T12:35:53.687Z,83.63
2022-11-04T12:39:55.058Z,83.62
2022-11-04T12:44:15.131Z,83.61
2022-11-04T12:48:22.447Z,82.88
2022-11-04T12:52:31.524Z,84.40
2022-11-04T12:56:37.783Z,83.91
2022-11-04T13:00:41.208Z,82.48
2022-11-04T13:04:48.219Z,82.32
2022-11-04T13:08:56.202Z,82.40
2022-11-04T13:13:01.306Z,82.86
2022-11-04T13:17:07.747Z,82.90
2022-11-04T13:21:16.874Z,82.08
2022-11-04T13:25:38.378Z,82.60
2022-11-04T13:29:40.417Z,83.23
2022-11-04T13:33:54.678Z,82.96
2022-11-04T13:37:59.494Z,82.63
2022-11-04T13:42:10.079Z,82.90
2022-11-04T13:46:11.379Z,82.37
2022-11-04T13:50:30.300Z,83.42
2022-11-04T13:54:43.164Z,82.71
2022-11-04T13:58:51.604Z,81.86
2022-11-04T14:02:54.272Z,82.45
2022-11-04T14:06:57.540Z,80.47
2022-11-04T14:11:00.994Z,82.06
2022-11-04T14:15:04.854Z,81.97
2022-11-04T14:19:44.713Z,83.16
2022-11-04T14:23:47.304Z,85.48
2022-11-04T14:27:49.849Z,85.46
2022-11-04T14:31:52.456Z,86.62
2022-11-04T14:35:55.155Z,88.59
2022-11-04T14:40:00.792Z,89.02
2022-11-04T14:44:07.325Z,88.07
2022-11-04T14:48:29.649Z,86.20
2022-11-04T14:52:52.400Z,86.46
2022-11-04T14:57:07.175Z,88.87
2022-11-04T15:01:17.640Z,89.61
2022-11-04T15:05:26.323Z,90.90
2022-11-04T15:09:30.203Z,91.32
2022-11-04T15:13:44.941Z,91.97
2022-11-04T15:17:46.712Z,92.71
2022-11-04T15:21:49.615Z,93.02
2022-11-04T15:25:51.021Z,93.13
2022-11-04T15:29:55.384Z,92.93
2022-11-04T15:33:58.639Z,93.00
2022-11-04T15:38:01.184Z,93.03
2022-11-04T15:42:23.315Z,93.14
2022-11-04T15:46:26.136Z,93.95
2022-11-04T15:50:30.555Z,95.04
2022-11-04T15:54:34.301Z,95.61
2022-11-04T15:58:35.699Z,96.19
2022-11-04T16:02:39.249Z,96.54
2022-11-04T16:06:44.911Z,96.36
2022-11-04T16:10:46.194Z,96.52
2022-11-04T16:14:48.686Z,96.56
2022-11-04T16:18:57.491Z,97.26
2022-11-04T16:23:00.017Z,97.73
2022-11-04T16:27:01.417Z,98.19
2022-11-04T16:31:04.887Z,98.07
2022-11-04T16:35:12.738Z,98.26
2022-11-04T16:39:14.321Z,98.52
2022-11-04T16:43:19.413Z,98.91
2022-11-04T16:47:21.013Z,98.48
2022-11-04T16:51:23.435Z,98.67
2022-11-04T16:55:25.387Z,98.57
2022-11-04T16:59:26.681Z,98.86
2022-11-04T17:03:27.951Z,98.86
2022-11-04T17:07:47.181Z,99.06
2022-11-04T17:11:50.662Z,99.18
2022-11-04T17:15:52.164Z,98.28
2022-11-04T17:19:53.475Z,98.88
2022-11-04T17:23:56.210Z,99.13
2022-11-04T17:27:57.486Z,98.75
2022-11-04T17:31:58.808Z,98.64
2022-11-04T17:36:04.794Z,98.55
2022-11-04T17:40:11.989Z,98.61
2022-11-04T17:44:13.680Z,99.25
2022-11-04T17:48:15.291Z,99.27
2022-11-04T17:52:16.636Z,99.42
2022-11-04T17:56:19.059Z,99.13
2022-11-04T18:00:24.201Z,99.37
2022-11-04T18:04:25.678Z,99.89
2022-11-04T18:08:26.958Z,99.94
2022-11-04T18:12:37.383Z,100.00
2022-11-04T18:16:38.659Z,100.00
2022-11-04T18:20:40.110Z,100.00
2022-11-04T18:24:41.597Z,100.00
2022-11-04T18:28:43.032Z,100.00
2022-11-04T18:32:44.389Z,100.00
2022-11-04T18:36:46.523Z,100.00
2022-11-04T18:40:47.810Z,100.00
2022-11-04T18:44:49.255Z,100.00
2022-11-04T18:48:51.749Z,100.00
2022-11-04T18:52:53.795Z,100.00
2022-11-04T18:56:55.079Z,100.00
2022-11-04T19:00:56.420Z,100.00
2022-11-04T19:04:57.784Z,100.00
2022-11-04T19:09:32.110Z,100.00
2022-11-04T19:13:28.623Z,100.00
2022-11-04T19:17:29.911Z,100.00
2022-11-04T19:21:31.252Z,100.00
2022-11-04T19:25:32.901Z,100.00
2022-11-04T19:29:34.519Z,100.00
2022-11-04T19:33:36.054Z,100.00
2022-11-04T19:37:37.637Z,100.00
2022-11-04T19:41:57.897Z,100.00
2022-11-04T19:46:04.213Z,100.00
2022-11-04T19:50:06.659Z,100.00
2022-11-04T19:54:09.840Z,100.00
2022-11-04T19:58:12.092Z,100.00
2022-11-04T20:02:14.337Z,100.00
2022-11-04T20:06:16.301Z,100.00
2022-11-04T20:10:17.842Z,100.00
2022-11-04T20:14:19.154Z,100.00
2022-11-04T20:18:21.221Z,100.00
2022-11-04T20:22:22.529Z,100.00
2022-11-04T20:26:24.787Z,100.00
2022-11-04T20:30:26.093Z,100.00
2022-11-04T20:34:32.512Z,100.00
2022-11-04T20:38:34.270Z,100.00
2022-11-04T20:42:35.742Z,100.00
2022-11-04T20:46:37.304Z,100.00
2022-11-04T20:50:38.591Z,100.00
2022-11-04T20:54:39.854Z,100.00
2022-11-04T20:58:42.553Z,100.00
2022-11-04T21:02:43.923Z,100.00
2022-11-04T21:06:45.849Z,100.00
2022-11-04T21:10:50.620Z,100.00
2022-11-04T21:14:52.196Z,100.00
2022-11-04T21:18:54.348Z,100.00
2022-11-04T21:22:55.644Z,100.00
2022-11-04T21:26:56.966Z,100.00
2022-11-04T21:31:02.407Z,100.00
2022-11-04T21:35:03.855Z,100.00
2022-11-04T21:39:05.611Z,100.00
2022-11-04T21:43:06.871Z,100.00
2022-11-04T21:47:08.259Z,100.00
2022-11-04T21:51:11.299Z,100.00
2022-11-04T21:55:12.728Z,100.00
2022-11-04T21:59:18.164Z,100.00
2022-11-04T22:03:20.032Z,100.00
2022-11-04T22:07:41.316Z,100.00
2022-11-04T22:11:42.726Z,100.00
2022-11-04T22:15:59.281Z,100.00
2022-11-04T22:20:00.648Z,100.00
2022-11-04T22:24:01.957Z,100.00
2022-11-04T22:28:03.385Z,100.00
2022-11-04T22:32:04.983Z,100.00
2022-11-04T22:36:06.927Z,100.00
2022-11-04T22:40:08.615Z,100.00
2022-11-04T22:44:10.215Z,100.00
2022-11-04T22:48:11.893Z,100.00
2022-11-04T22:52:13.219Z,100.00
2022-11-04T22:56:14.898Z,100.00
2022-11-04T23:00:16.392Z,100.00
2022-11-04T23:04:17.701Z,100.00
2022-11-04T23:08:19.133Z,100.00
2022-11-04T23:12:39.453Z,100.00
2022-11-04T23:16:59.510Z,100.00
2022-11-04T23:21:19.647Z,100.00
2022-11-04T23:25:20.975Z,100.00
2022-11-04T23:29:41.146Z,100.00
2022-11-04T23:34:01.466Z,100.00
2022-11-04T23:38:03.220Z,100.00
2022-11-04T23:42:16.703Z,100.00
2022-11-04T23:46:42.598Z,100.00
2022-11-04T23:51:03.358Z,100.00
2022-11-04T23:55:23.996Z,100.00
2022-11-04T23:59:44.142Z,100.00
